sensor_id;sensor_type;location;lat;lon;timestamp;P1;durP1;ratioP1;P2;durP2;ratioP2
18013;SDS011;9132;47.946;10.394;2024-01-15T00:00:16;10.03;;;5.47;;
18013;SDS011;9132;47.946;10.394;2024-01-15T00:02:43;7.77;;;5.37;;
18013;SDS011;9132;47.946;10.394;2024-01-15T00:05:11;8.57;;;5.00;;
18013;SDS011;9132;47.946;10.394;2024-01-15T00:07:39;7.87;;;4.63;;
18013;SDS011;9132;47.946;10.394;2024-01-15T00:10:06;8.00;;;5.20;;
18013;SDS011;9132;47.946;10.394;2024-01-15T00:12:33;6.97;;;5.07;;
18013;SDS011;9132;47.946;10.394;2024-01-15T00:14:59;8.10;;;4.67;;
18013;SDS011;9132;47.946;10.394;2024-01-15T00:17:26;7.57;;;5.43;;
18013;SDS011;9132;47.946;10.394;2024-01-15T00:19:52;10.33;;;5.30;;
18013;SDS011;9132;47.946;10.394;2024-01-15T00:22:20;9.63;;;5.37;;
18013;SDS011;9132;47.946;10.394;2024-01-15T00:24:47;8.33;;;6.13;;
18013;SDS011;9132;47.946;10.394;2024-01-15T00:27:13;7.97;;;4.30;;
18013;SDS011;9132;47.946;10.394;2024-01-15T00:29:40;8.63;;;5.60;;
18013;SDS011;9132;47.946;10.394;2024-01-15T00:32:06;7.60;;;4.60;;
18013;SDS011;9132;47.946;10.394;2024-01-15T00:34:33;9.10;;;5.67;;
18013;SDS011;9132;47.946;10.394;2024-01-15T00:36:59;6.83;;;5.00;;
18013;SDS011;9132;47.946;10.394;2024-01-15T00:39:27;8.23;;;4.90;;
18013;SDS011;9132;47.946;10.394;2024-01-15T00:41:54;9.67;;;5.53;;
18013;SDS011;9132;47.946;10.394;2024-01-15T00:44:20;8.27;;;4.70;;
18013;SDS011;9132;47.946;10.394;2024-01-15T00:46:47;6.07;;;4.03;;
18013;SDS011;9132;47.946;10.394;2024-01-15T00:49:13;8.13;;;4.80;;
18013;SDS011;9132;47.946;10.394;2024-01-15T00:51:40;8.53;;;4.83;;
18013;SDS011;9132;47.946;10.394;2024-01-15T00:54:07;8.83;;;4.87;;
18013;SDS011;9132;47.946;10.394;2024-01-15T00:56:36;7.90;;;4.97;;
18013;SDS011;9132;47.946;10.394;2024-01-15T00:59:02;6.30;;;4.77;;
18013;SDS011;9132;47.946;10.394;2024-01-15T01:01:29;11.17;;;5.80;;
18013;SDS011;9132;47.946;10.394;2024-01-15T01:03:56;9.30;;;5.13;;
18013;SDS011;9132;47.946;10.394;2024-01-15T01:06:22;8.93;;;4.93;;
18013;SDS011;9132;47.946;10.394;2024-01-15T01:08:49;9.10;;;5.33;;
18013;SDS011;9132;47.946;10.394;2024-01-15T01:11:15;8.80;;;5.37;;
18013;SDS011;9132;47.946;10.394;2024-01-15T01:13:43;11.17;;;6.37;;
18013;SDS011;9132;47.946;10.394;2024-01-15T01:16:10;11.57;;;6.30;;
18013;SDS011;9132;47.946;10.394;2024-01-15T01:18:36;12.60;;;6.67;;
18013;SDS011;9132;47.946;10.394;2024-01-15T01:21:03;12.47;;;6.83;;
18013;SDS011;9132;47.946;10.394;2024-01-15T01:23:29;9.30;;;6.43;;
18013;SDS011;9132;47.946;10.394;2024-01-15T01:25:56;12.00;;;7.40;;
18013;SDS011;9132;47.946;10.394;2024-01-15T01:28:22;13.13;;;7.40;;
18013;SDS011;9132;47.946;10.394;2024-01-15T01:30:50;13.70;;;7.87;;
18013;SDS011;9132;47.946;10.394;2024-01-15T01:33:17;15.07;;;8.87;;
18013;SDS011;9132;47.946;10.394;2024-01-15T01:35:43;15.60;;;8.73;;
18013;SDS011;9132;47.946;10.394;2024-01-15T01:38:10;14.53;;;9.00;;
18013;SDS011;9132;47.946;10.394;2024-01-15T01:40:36;12.73;;;8.53;;
18013;SDS011;9132;47.946;10.394;2024-01-15T01:43:05;13.63;;;8.77;;
18013;SDS011;9132;47.946;10.394;2024-01-15T01:45:31;15.00;;;8.13;;
18013;SDS011;9132;47.946;10.394;2024-01-15T01:47:59;15.27;;;8.70;;
18013;SDS011;9132;47.946;10.394;2024-01-15T01:50:26;15.97;;;8.07;;
18013;SDS011;9132;47.946;10.394;2024-01-15T01:52:54;15.30;;;8.90;;
18013;SDS011;9132;47.946;10.394;2024-01-15T01:55:21;15.43;;;8.67;;
18013;SDS011;9132;47.946;10.394;2024-01-15T01:57:52;17.20;;;8.77;;
18013;SDS011;9132;47.946;10.394;2024-01-15T02:00:21;16.07;;;9.07;;
18013;SDS011;9132;47.946;10.394;2024-01-15T02:02:49;16.13;;;9.40;;
18013;SDS011;9132;47.946;10.394;2024-01-15T02:05:18;18.47;;;9.47;;
18013;SDS011;9132;47.946;10.394;2024-01-15T02:07:46;15.27;;;8.70;;
18013;SDS011;9132;47.946;10.394;2024-01-15T02:10:13;11.70;;;8.37;;
18013;SDS011;9132;47.946;10.394;2024-01-15T02:12:40;17.27;;;9.50;;
18013;SDS011;9132;47.946;10.394;2024-01-15T02:15:10;16.37;;;9.07;;
18013;SDS011;9132;47.946;10.394;2024-01-15T02:20:24;15.27;;;8.90;;
18013;SDS011;9132;47.946;10.394;2024-01-15T02:22:50;15.67;;;9.43;;
18013;SDS011;9132;47.946;10.394;2024-01-15T02:25:19;13.90;;;8.37;;
18013;SDS011;9132;47.946;10.394;2024-01-15T02:27:46;14.27;;;8.27;;
18013;SDS011;9132;47.946;10.394;2024-01-15T02:30:13;13.47;;;8.87;;
18013;SDS011;9132;47.946;10.394;2024-01-15T02:32:39;15.87;;;9.37;;
18013;SDS011;9132;47.946;10.394;2024-01-15T02:35:07;16.63;;;8.90;;
18013;SDS011;9132;47.946;10.394;2024-01-15T02:37:34;14.33;;;8.40;;
18013;SDS011;9132;47.946;10.394;2024-01-15T02:40:01;15.37;;;9.07;;
18013;SDS011;9132;47.946;10.394;2024-01-15T02:42:29;15.43;;;8.67;;
18013;SDS011;9132;47.946;10.394;2024-01-15T02:44:56;13.03;;;8.30;;
18013;SDS011;9132;47.946;10.394;2024-01-15T02:47:22;17.33;;;8.13;;
18013;SDS011;9132;47.946;10.394;2024-01-15T02:49:50;14.40;;;8.67;;
18013;SDS011;9132;47.946;10.394;2024-01-15T02:52:17;14.53;;;7.83;;
18013;SDS011;9132;47.946;10.394;2024-01-15T02:54:45;16.03;;;8.60;;
18013;SDS011;9132;47.946;10.394;2024-01-15T02:57:11;16.53;;;8.77;;
18013;SDS011;9132;47.946;10.394;2024-01-15T02:59:39;14.30;;;7.83;;
18013;SDS011;9132;47.946;10.394;2024-01-15T03:02:06;12.40;;;7.60;;
18013;SDS011;9132;47.946;10.394;2024-01-15T03:04:33;12.13;;;7.63;;
18013;SDS011;9132;47.946;10.394;2024-01-15T03:06:59;13.70;;;7.63;;
18013;SDS011;9132;47.946;10.394;2024-01-15T03:09:26;13.80;;;7.40;;
18013;SDS011;9132;47.946;10.394;2024-01-15T03:11:52;14.43;;;7.33;;
18013;SDS011;9132;47.946;10.394;2024-01-15T03:14:19;13.10;;;7.47;;
18013;SDS011;9132;47.946;10.394;2024-01-15T03:16:47;13.47;;;7.37;;
18013;SDS011;9132;47.946;10.394;2024-01-15T03:19:14;12.60;;;7.50;;
18013;SDS011;9132;47.946;10.394;2024-01-15T03:21:41;13.83;;;6.67;;
18013;SDS011;9132;47.946;10.394;2024-01-15T03:24:08;12.27;;;7.27;;
18013;SDS011;9132;47.946;10.394;2024-01-15T03:26:34;11.43;;;6.50;;
18013;SDS011;9132;47.946;10.394;2024-01-15T03:29:01;14.37;;;7.70;;
18013;SDS011;9132;47.946;10.394;2024-01-15T03:31:27;12.87;;;7.17;;
18013;SDS011;9132;47.946;10.394;2024-01-15T03:33:55;13.40;;;6.93;;
18013;SDS011;9132;47.946;10.394;2024-01-15T03:36:22;10.77;;;6.10;;
18013;SDS011;9132;47.946;10.394;2024-01-15T03:38:49;10.93;;;6.57;;
18013;SDS011;9132;47.946;10.394;2024-01-15T03:41:16;8.67;;;5.37;;
18013;SDS011;9132;47.946;10.394;2024-01-15T03:43:42;10.10;;;5.87;;
18013;SDS011;9132;47.946;10.394;2024-01-15T03:46:09;11.43;;;6.10;;
18013;SDS011;9132;47.946;10.394;2024-01-15T03:48:35;11.00;;;5.70;;
18013;SDS011;9132;47.946;10.394;2024-01-15T03:51:04;9.57;;;5.50;;
18013;SDS011;9132;47.946;10.394;2024-01-15T03:53:30;10.27;;;5.37;;
18013;SDS011;9132;47.946;10.394;2024-01-15T03:55:57;10.27;;;6.17;;
18013;SDS011;9132;47.946;10.394;2024-01-15T03:58:23;11.70;;;5.93;;
18013;SDS011;9132;47.946;10.394;2024-01-15T04:00:50;9.13;;;5.50;;
18013;SDS011;9132;47.946;10.394;2024-01-15T04:03:16;10.57;;;6.33;;
18013;SDS011;9132;47.946;10.394;2024-01-15T04:05:43;11.87;;;6.00;;
18013;SDS011;9132;47.946;10.394;2024-01-15T04:08:11;9.77;;;6.33;;
18013;SDS011;9132;47.946;10.394;2024-01-15T04:10:39;9.87;;;5.70;;
18013;SDS011;9132;47.946;10.394;2024-01-15T04:13:05;9.80;;;6.17;;
18013;SDS011;9132;47.946;10.394;2024-01-15T04:15:32;11.00;;;6.60;;
18013;SDS011;9132;47.946;10.394;2024-01-15T04:17:58;7.77;;;5.33;;
18013;SDS011;9132;47.946;10.394;2024-01-15T04:20:26;12.27;;;6.03;;
18013;SDS011;9132;47.946;10.394;2024-01-15T04:22:53;9.63;;;5.87;;
18013;SDS011;9132;47.946;10.394;2024-01-15T04:25:21;9.77;;;6.40;;
18013;SDS011;9132;47.946;10.394;2024-01-15T04:27:48;7.80;;;4.87;;
18013;SDS011;9132;47.946;10.394;2024-01-15T04:30:16;9.80;;;5.47;;
18013;SDS011;9132;47.946;10.394;2024-01-15T04:32:43;9.27;;;5.43;;
18013;SDS011;9132;47.946;10.394;2024-01-15T04:35:10;7.77;;;5.07;;
18013;SDS011;9132;47.946;10.394;2024-01-15T04:37:38;9.20;;;4.80;;
18013;SDS011;9132;47.946;10.394;2024-01-15T04:40:08;9.60;;;5.80;;
18013;SDS011;9132;47.946;10.394;2024-01-15T04:42:37;7.60;;;4.90;;
18013;SDS011;9132;47.946;10.394;2024-01-15T04:45:04;7.57;;;4.87;;
18013;SDS011;9132;47.946;10.394;2024-01-15T04:47:30;6.50;;;4.77;;
18013;SDS011;9132;47.946;10.394;2024-01-15T04:49:57;8.77;;;5.30;;
18013;SDS011;9132;47.946;10.394;2024-01-15T04:52:24;8.23;;;4.80;;
18013;SDS011;9132;47.946;10.394;2024-01-15T04:54:52;7.47;;;4.70;;
18013;SDS011;9132;47.946;10.394;2024-01-15T04:57:18;7.60;;;4.93;;
18013;SDS011;9132;47.946;10.394;2024-01-15T04:59:46;6.93;;;4.30;;
18013;SDS011;9132;47.946;10.394;2024-01-15T05:02:13;9.13;;;5.07;;
18013;SDS011;9132;47.946;10.394;2024-01-15T05:04:39;10.43;;;5.30;;
18013;SDS011;9132;47.946;10.394;2024-01-15T05:07:06;9.20;;;5.00;;
18013;SDS011;9132;47.946;10.394;2024-01-15T05:09:33;7.33;;;4.87;;
18013;SDS011;9132;47.946;10.394;2024-01-15T05:12:00;10.50;;;6.00;;
18013;SDS011;9132;47.946;10.394;2024-01-15T05:14:26;9.03;;;5.67;;
18013;SDS011;9132;47.946;10.394;2024-01-15T05:16:54;8.03;;;5.20;;
18013;SDS011;9132;47.946;10.394;2024-01-15T05:19:20;8.63;;;5.10;;
18013;SDS011;9132;47.946;10.394;2024-01-15T05:21:47;8.57;;;5.03;;
18013;SDS011;9132;47.946;10.394;2024-01-15T05:24:13;9.33;;;5.63;;
18013;SDS011;9132;47.946;10.394;2024-01-15T05:26:40;8.93;;;5.57;;
18013;SDS011;9132;47.946;10.394;2024-01-15T05:29:07;8.50;;;5.33;;
18013;SDS011;9132;47.946;10.394;2024-01-15T05:31:33;9.67;;;5.70;;
18013;SDS011;9132;47.946;10.394;2024-01-15T05:34:03;9.87;;;5.33;;
18013;SDS011;9132;47.946;10.394;2024-01-15T05:36:29;9.63;;;5.17;;
18013;SDS011;9132;47.946;10.394;2024-01-15T05:38:56;10.30;;;5.93;;
18013;SDS011;9132;47.946;10.394;2024-01-15T05:41:22;9.30;;;5.40;;
18013;SDS011;9132;47.946;10.394;2024-01-15T05:43:49;9.83;;;5.63;;
18013;SDS011;9132;47.946;10.394;2024-01-15T05:46:15;10.50;;;5.50;;
18013;SDS011;9132;47.946;10.394;2024-01-15T05:48:42;8.30;;;4.87;;
18013;SDS011;9132;47.946;10.394;2024-01-15T05:51:10;9.40;;;5.43;;
18013;SDS011;9132;47.946;10.394;2024-01-15T05:53:36;8.43;;;5.00;;
18013;SDS011;9132;47.946;10.394;2024-01-15T05:56:05;8.50;;;4.77;;
18013;SDS011;9132;47.946;10.394;2024-01-15T05:58:32;10.07;;;5.20;;
18013;SDS011;9132;47.946;10.394;2024-01-15T06:00:58;9.10;;;5.87;;
18013;SDS011;9132;47.946;10.394;2024-01-15T06:03:25;7.10;;;5.07;;
18013;SDS011;9132;47.946;10.394;2024-01-15T06:05:51;8.53;;;5.47;;
18013;SDS011;9132;47.946;10.394;2024-01-15T06:08:19;7.77;;;4.80;;
18013;SDS011;9132;47.946;10.394;2024-01-15T06:10:46;8.50;;;5.27;;
18013;SDS011;9132;47.946;10.394;2024-01-15T06:13:12;7.50;;;4.90;;
18013;SDS011;9132;47.946;10.394;2024-01-15T06:15:39;6.83;;;4.57;;
18013;SDS011;9132;47.946;10.394;2024-01-15T06:18:06;7.57;;;4.50;;
18013;SDS011;9132;47.946;10.394;2024-01-15T06:20:32;10.37;;;5.10;;
18013;SDS011;9132;47.946;10.394;2024-01-15T06:22:59;8.40;;;5.57;;
18013;SDS011;9132;47.946;10.394;2024-01-15T06:25:27;7.97;;;5.27;;
18013;SDS011;9132;47.946;10.394;2024-01-15T06:27:53;8.60;;;5.03;;
18013;SDS011;9132;47.946;10.394;2024-01-15T06:30:20;8.30;;;5.33;;
18013;SDS011;9132;47.946;10.394;2024-01-15T06:32:47;9.05;;;5.75;;
18013;SDS011;9132;47.946;10.394;2024-01-15T06:35:13;9.13;;;5.53;;
18013;SDS011;9132;47.946;10.394;2024-01-15T06:37:40;9.63;;;5.67;;
18013;SDS011;9132;47.946;10.394;2024-01-15T06:40:07;9.88;;;6.05;;
18013;SDS011;9132;47.946;10.394;2024-01-15T06:42:36;9.40;;;7.43;;
18013;SDS011;9132;47.946;10.394;2024-01-15T06:45:03;10.07;;;6.57;;
18013;SDS011;9132;47.946;10.394;2024-01-15T06:47:30;8.47;;;5.47;;
18013;SDS011;9132;47.946;10.394;2024-01-15T06:49:57;8.43;;;5.73;;
18013;SDS011;9132;47.946;10.394;2024-01-15T06:52:24;9.47;;;6.30;;
18013;SDS011;9132;47.946;10.394;2024-01-15T06:54:50;8.98;;;7.05;;
18013;SDS011;9132;47.946;10.394;2024-01-15T06:57:17;7.97;;;5.73;;
18013;SDS011;9132;47.946;10.394;2024-01-15T06:59:46;9.60;;;5.17;;
18013;SDS011;9132;47.946;10.394;2024-01-15T07:02:13;7.77;;;5.00;;
18013;SDS011;9132;47.946;10.394;2024-01-15T07:04:39;9.13;;;5.73;;
18013;SDS011;9132;47.946;10.394;2024-01-15T07:07:06;10.53;;;6.17;;
18013;SDS011;9132;47.946;10.394;2024-01-15T07:09:32;9.20;;;5.37;;
18013;SDS011;9132;47.946;10.394;2024-01-15T07:11:59;11.17;;;5.77;;
18013;SDS011;9132;47.946;10.394;2024-01-15T07:14:25;8.20;;;5.77;;
18013;SDS011;9132;47.946;10.394;2024-01-15T07:16:53;10.00;;;5.97;;
18013;SDS011;9132;47.946;10.394;2024-01-15T07:19:20;12.07;;;6.40;;
18013;SDS011;9132;47.946;10.394;2024-01-15T07:21:47;10.27;;;6.60;;
18013;SDS011;9132;47.946;10.394;2024-01-15T07:24:13;11.67;;;6.90;;
18013;SDS011;9132;47.946;10.394;2024-01-15T07:26:40;10.47;;;6.50;;
18013;SDS011;9132;47.946;10.394;2024-01-15T07:29:06;11.33;;;6.63;;
18013;SDS011;9132;47.946;10.394;2024-01-15T07:31:33;13.50;;;6.67;;
18013;SDS011;9132;47.946;10.394;2024-01-15T07:34:01;10.67;;;6.43;;
18013;SDS011;9132;47.946;10.394;2024-01-15T07:36:28;11.57;;;6.23;;
18013;SDS011;9132;47.946;10.394;2024-01-15T07:38:55;12.15;;;9.02;;
18013;SDS011;9132;47.946;10.394;2024-01-15T07:41:22;10.70;;;6.70;;
18013;SDS011;9132;47.946;10.394;2024-01-15T07:43:49;13.77;;;8.70;;
18013;SDS011;9132;47.946;10.394;2024-01-15T07:46:15;12.70;;;7.20;;
18013;SDS011;9132;47.946;10.394;2024-01-15T07:48:42;11.30;;;6.30;;
18013;SDS011;9132;47.946;10.394;2024-01-15T07:51:10;13.30;;;7.57;;
18013;SDS011;9132;47.946;10.394;2024-01-15T07:53:37;9.70;;;6.37;;
18013;SDS011;9132;47.946;10.394;2024-01-15T07:56:05;9.57;;;6.00;;
18013;SDS011;9132;47.946;10.394;2024-01-15T07:58:31;11.10;;;5.80;;
18013;SDS011;9132;47.946;10.394;2024-01-15T08:00:58;11.13;;;5.70;;
18013;SDS011;9132;47.946;10.394;2024-01-15T08:03:25;9.70;;;5.43;;
18013;SDS011;9132;47.946;10.394;2024-01-15T08:05:52;10.27;;;5.67;;
18013;SDS011;9132;47.946;10.394;2024-01-15T08:08:20;9.25;;;5.95;;
18013;SDS011;9132;47.946;10.394;2024-01-15T08:10:48;8.33;;;5.30;;
18013;SDS011;9132;47.946;10.394;2024-01-15T08:13:14;7.47;;;4.73;;
18013;SDS011;9132;47.946;10.394;2024-01-15T08:15:41;9.43;;;5.53;;
18013;SDS011;9132;47.946;10.394;2024-01-15T08:18:08;9.63;;;5.60;;
18013;SDS011;9132;47.946;10.394;2024-01-15T08:20:34;8.60;;;5.23;;
18013;SDS011;9132;47.946;10.394;2024-01-15T08:23:01;8.97;;;5.33;;
18013;SDS011;9132;47.946;10.394;2024-01-15T08:25:29;7.87;;;4.47;;
18013;SDS011;9132;47.946;10.394;2024-01-15T08:27:56;6.87;;;4.57;;
18013;SDS011;9132;47.946;10.394;2024-01-15T08:30:22;10.27;;;6.07;;
18013;SDS011;9132;47.946;10.394;2024-01-15T08:32:52;9.10;;;5.20;;
18013;SDS011;9132;47.946;10.394;2024-01-15T08:35:19;9.00;;;6.20;;
18013;SDS011;9132;47.946;10.394;2024-01-15T08:37:47;12.20;;;6.80;;
18013;SDS011;9132;47.946;10.394;2024-01-15T08:40:14;14.33;;;7.13;;
18013;SDS011;9132;47.946;10.394;2024-01-15T08:42:42;7.00;;;4.30;;
18013;SDS011;9132;47.946;10.394;2024-01-15T08:45:09;10.83;;;4.97;;
18013;SDS011;9132;47.946;10.394;2024-01-15T08:47:35;9.07;;;5.80;;
18013;SDS011;9132;47.946;10.394;2024-01-15T08:50:02;10.43;;;5.33;;
18013;SDS011;9132;47.946;10.394;2024-01-15T08:52:30;8.70;;;5.43;;
18013;SDS011;9132;47.946;10.394;2024-01-15T08:54:56;9.87;;;5.60;;
18013;SDS011;9132;47.946;10.394;2024-01-15T08:57:23;8.77;;;5.53;;
18013;SDS011;9132;47.946;10.394;2024-01-15T08:59:51;8.60;;;5.23;;
18013;SDS011;9132;47.946;10.394;2024-01-15T09:02:19;9.43;;;4.83;;
18013;SDS011;9132;47.946;10.394;2024-01-15T09:04:45;8.77;;;4.90;;
18013;SDS011;9132;47.946;10.394;2024-01-15T09:07:12;8.27;;;4.80;;
18013;SDS011;9132;47.946;10.394;2024-01-15T09:09:39;9.70;;;5.47;;
18013;SDS011;9132;47.946;10.394;2024-01-15T09:12:07;11.25;;;6.85;;
18013;SDS011;9132;47.946;10.394;2024-01-15T09:14:34;11.10;;;5.90;;
18013;SDS011;9132;47.946;10.394;2024-01-15T09:17:03;8.07;;;4.83;;
18013;SDS011;9132;47.946;10.394;2024-01-15T09:19:30;8.67;;;5.03;;
18013;SDS011;9132;47.946;10.394;2024-01-15T09:21:56;8.13;;;4.90;;
18013;SDS011;9132;47.946;10.394;2024-01-15T09:24:23;10.00;;;4.90;;
18013;SDS011;9132;47.946;10.394;2024-01-15T09:26:50;12.37;;;7.00;;
18013;SDS011;9132;47.946;10.394;2024-01-15T09:29:16;11.30;;;5.37;;
18013;SDS011;9132;47.946;10.394;2024-01-15T09:31:43;9.97;;;5.60;;
18013;SDS011;9132;47.946;10.394;2024-01-15T09:34:11;7.13;;;4.77;;
18013;SDS011;9132;47.946;10.394;2024-01-15T09:36:39;10.30;;;5.70;;
18013;SDS011;9132;47.946;10.394;2024-01-15T09:39:07;10.80;;;6.03;;
18013;SDS011;9132;47.946;10.394;2024-01-15T09:41:34;9.63;;;5.43;;
18013;SDS011;9132;47.946;10.394;2024-01-15T09:44:01;12.67;;;5.60;;
18013;SDS011;9132;47.946;10.394;2024-01-15T09:46:29;20.00;;;9.37;;
18013;SDS011;9132;47.946;10.394;2024-01-15T09:48:56;14.20;;;6.80;;
18013;SDS011;9132;47.946;10.394;2024-01-15T09:51:24;18.77;;;9.07;;
18013;SDS011;9132;47.946;10.394;2024-01-15T09:53:51;10.20;;;4.93;;
18013;SDS011;9132;47.946;10.394;2024-01-15T09:56:20;9.93;;;5.57;;
18013;SDS011;9132;47.946;10.394;2024-01-15T09:58:47;7.83;;;4.53;;
18013;SDS011;9132;47.946;10.394;2024-01-15T10:01:14;8.33;;;5.03;;
18013;SDS011;9132;47.946;10.394;2024-01-15T10:03:41;9.80;;;5.77;;
18013;SDS011;9132;47.946;10.394;2024-01-15T10:06:08;10.33;;;5.97;;
18013;SDS011;9132;47.946;10.394;2024-01-15T10:08:38;7.17;;;5.10;;
18013;SDS011;9132;47.946;10.394;2024-01-15T10:11:05;7.97;;;5.30;;
18013;SDS011;9132;47.946;10.394;2024-01-15T10:13:31;8.93;;;5.53;;
18013;SDS011;9132;47.946;10.394;2024-01-15T10:15:58;9.77;;;5.03;;
18013;SDS011;9132;47.946;10.394;2024-01-15T10:18:25;13.30;;;7.37;;
18013;SDS011;9132;47.946;10.394;2024-01-15T10:20:52;6.73;;;4.50;;
18013;SDS011;9132;47.946;10.394;2024-01-15T10:23:18;6.13;;;4.20;;
18013;SDS011;9132;47.946;10.394;2024-01-15T10:25:46;6.30;;;4.20;;
18013;SDS011;9132;47.946;10.394;2024-01-15T10:28:13;6.20;;;4.00;;
18013;SDS011;9132;47.946;10.394;2024-01-15T10:30:39;7.23;;;4.23;;
18013;SDS011;9132;47.946;10.394;2024-01-15T10:33:06;7.23;;;3.90;;
18013;SDS011;9132;47.946;10.394;2024-01-15T10:35:33;11.77;;;5.73;;
18013;SDS011;9132;47.946;10.394;2024-01-15T10:38:00;7.50;;;4.33;;
18013;SDS011;9132;47.946;10.394;2024-01-15T10:40:28;6.97;;;4.80;;
18013;SDS011;9132;47.946;10.394;2024-01-15T10:42:56;7.53;;;3.90;;
18013;SDS011;9132;47.946;10.394;2024-01-15T10:45:23;6.00;;;3.60;;
18013;SDS011;9132;47.946;10.394;2024-01-15T10:47:50;6.07;;;3.80;;
18013;SDS011;9132;47.946;10.394;2024-01-15T10:50:17;4.73;;;3.63;;
18013;SDS011;9132;47.946;10.394;2024-01-15T10:52:44;4.80;;;3.07;;
18013;SDS011;9132;47.946;10.394;2024-01-15T10:55:10;6.53;;;3.90;;
18013;SDS011;9132;47.946;10.394;2024-01-15T10:57:37;3.63;;;2.80;;
18013;SDS011;9132;47.946;10.394;2024-01-15T11:00:06;5.23;;;3.23;;
18013;SDS011;9132;47.946;10.394;2024-01-15T11:02:39;7.40;;;3.73;;
18013;SDS011;9132;47.946;10.394;2024-01-15T11:05:07;5.60;;;3.90;;
18013;SDS011;9132;47.946;10.394;2024-01-15T11:07:33;8.83;;;4.30;;
18013;SDS011;9132;47.946;10.394;2024-01-15T11:10:02;7.27;;;4.63;;
18013;SDS011;9132;47.946;10.394;2024-01-15T11:12:30;9.43;;;4.70;;
18013;SDS011;9132;47.946;10.394;2024-01-15T11:15:01;7.10;;;4.10;;
18013;SDS011;9132;47.946;10.394;2024-01-15T11:17:34;9.17;;;5.17;;
18013;SDS011;9132;47.946;10.394;2024-01-15T11:20:24;10.13;;;5.03;;
18013;SDS011;9132;47.946;10.394;2024-01-15T11:22:51;8.47;;;5.27;;
18013;SDS011;9132;47.946;10.394;2024-01-15T11:25:18;11.13;;;6.03;;
18013;SDS011;9132;47.946;10.394;2024-01-15T11:27:46;9.20;;;6.00;;
18013;SDS011;9132;47.946;10.394;2024-01-15T11:30:16;7.23;;;5.00;;
18013;SDS011;9132;47.946;10.394;2024-01-15T11:32:46;11.30;;;5.97;;
18013;SDS011;9132;47.946;10.394;2024-01-15T11:35:13;9.17;;;5.97;;
18013;SDS011;9132;47.946;10.394;2024-01-15T11:37:58;9.53;;;5.23;;
18013;SDS011;9132;47.946;10.394;2024-01-15T11:43:09;8.33;;;5.33;;
18013;SDS011;9132;47.946;10.394;2024-01-15T11:45:38;11.13;;;5.83;;
18013;SDS011;9132;47.946;10.394;2024-01-15T11:48:13;9.60;;;5.97;;
18013;SDS011;9132;47.946;10.394;2024-01-15T11:50:41;12.07;;;5.60;;
18013;SDS011;9132;47.946;10.394;2024-01-15T11:55:59;9.83;;;5.20;;
18013;SDS011;9132;47.946;10.394;2024-01-15T11:58:28;7.73;;;5.00;;
18013;SDS011;9132;47.946;10.394;2024-01-15T12:00:55;11.23;;;6.07;;
18013;SDS011;9132;47.946;10.394;2024-01-15T12:03:23;8.83;;;4.97;;
18013;SDS011;9132;47.946;10.394;2024-01-15T12:05:51;9.37;;;4.63;;
18013;SDS011;9132;47.946;10.394;2024-01-15T12:08:22;8.77;;;4.67;;
18013;SDS011;9132;47.946;10.394;2024-01-15T12:10:49;9.87;;;5.33;;
18013;SDS011;9132;47.946;10.394;2024-01-15T12:13:16;7.53;;;4.47;;
18013;SDS011;9132;47.946;10.394;2024-01-15T12:15:45;7.67;;;4.47;;
18013;SDS011;9132;47.946;10.394;2024-01-15T12:18:14;6.97;;;4.20;;
18013;SDS011;9132;47.946;10.394;2024-01-15T12:20:44;8.70;;;4.47;;
18013;SDS011;9132;47.946;10.394;2024-01-15T12:23:12;6.93;;;4.40;;
18013;SDS011;9132;47.946;10.394;2024-01-15T12:25:39;6.53;;;4.27;;
18013;SDS011;9132;47.946;10.394;2024-01-15T12:28:06;6.90;;;4.70;;
18013;SDS011;9132;47.946;10.394;2024-01-15T12:30:34;6.73;;;4.03;;
18013;SDS011;9132;47.946;10.394;2024-01-15T12:33:02;8.67;;;4.47;;
18013;SDS011;9132;47.946;10.394;2024-01-15T12:35:30;10.10;;;5.27;;
18013;SDS011;9132;47.946;10.394;2024-01-15T12:37:59;8.07;;;4.53;;
18013;SDS011;9132;47.946;10.394;2024-01-15T12:40:27;6.00;;;4.47;;
18013;SDS011;9132;47.946;10.394;2024-01-15T12:42:54;6.80;;;4.10;;
18013;SDS011;9132;47.946;10.394;2024-01-15T12:45:21;6.10;;;3.57;;
18013;SDS011;9132;47.946;10.394;2024-01-15T12:47:47;4.83;;;3.30;;
18013;SDS011;9132;47.946;10.394;2024-01-15T12:50:15;5.77;;;3.30;;
18013;SDS011;9132;47.946;10.394;2024-01-15T12:52:41;6.83;;;3.73;;
18013;SDS011;9132;47.946;10.394;2024-01-15T12:55:10;4.27;;;3.13;;
18013;SDS011;9132;47.946;10.394;2024-01-15T12:57:37;4.23;;;2.77;;
18013;SDS011;9132;47.946;10.394;2024-01-15T13:00:04;5.70;;;3.57;;
18013;SDS011;9132;47.946;10.394;2024-01-15T13:02:32;5.90;;;3.60;;
18013;SDS011;9132;47.946;10.394;2024-01-15T13:05:00;4.72;;;3.53;;
18013;SDS011;9132;47.946;10.394;2024-01-15T13:07:29;4.63;;;3.40;;
18013;SDS011;9132;47.946;10.394;2024-01-15T13:09:56;3.93;;;3.10;;
18013;SDS011;9132;47.946;10.394;2024-01-15T13:12:23;4.63;;;3.27;;
18013;SDS011;9132;47.946;10.394;2024-01-15T13:14:51;4.70;;;3.10;;
18013;SDS011;9132;47.946;10.394;2024-01-15T13:17:18;6.47;;;3.50;;
18013;SDS011;9132;47.946;10.394;2024-01-15T13:19:45;5.87;;;3.50;;
18013;SDS011;9132;47.946;10.394;2024-01-15T13:22:13;6.13;;;3.77;;
18013;SDS011;9132;47.946;10.394;2024-01-15T13:24:40;3.97;;;3.00;;
18013;SDS011;9132;47.946;10.394;2024-01-15T13:27:07;5.80;;;3.57;;
18013;SDS011;9132;47.946;10.394;2024-01-15T13:29:35;5.17;;;3.27;;
18013;SDS011;9132;47.946;10.394;2024-01-15T13:32:02;5.13;;;3.23;;
18013;SDS011;9132;47.946;10.394;2024-01-15T13:34:29;5.27;;;4.03;;
18013;SDS011;9132;47.946;10.394;2024-01-15T13:36:56;5.47;;;3.40;;
18013;SDS011;9132;47.946;10.394;2024-01-15T13:39:23;6.03;;;3.83;;
18013;SDS011;9132;47.946;10.394;2024-01-15T13:41:49;5.20;;;3.50;;
18013;SDS011;9132;47.946;10.394;2024-01-15T13:44:16;7.10;;;3.73;;
18013;SDS011;9132;47.946;10.394;2024-01-15T13:46:43;7.00;;;3.87;;
18013;SDS011;9132;47.946;10.394;2024-01-15T13:49:10;4.97;;;3.33;;
18013;SDS011;9132;47.946;10.394;2024-01-15T13:51:36;4.03;;;2.43;;
18013;SDS011;9132;47.946;10.394;2024-01-15T13:54:03;5.47;;;3.50;;
18013;SDS011;9132;47.946;10.394;2024-01-15T13:56:30;5.13;;;3.67;;
18013;SDS011;9132;47.946;10.394;2024-01-15T13:58:57;4.53;;;3.50;;
18013;SDS011;9132;47.946;10.394;2024-01-15T14:01:24;3.90;;;2.97;;
18013;SDS011;9132;47.946;10.394;2024-01-15T14:03:53;5.33;;;3.00;;
18013;SDS011;9132;47.946;10.394;2024-01-15T14:06:20;5.68;;;3.75;;
18013;SDS011;9132;47.946;10.394;2024-01-15T14:08:46;5.03;;;3.00;;
18013;SDS011;9132;47.946;10.394;2024-01-15T14:11:13;5.03;;;3.73;;
18013;SDS011;9132;47.946;10.394;2024-01-15T14:13:40;4.47;;;3.30;;
18013;SDS011;9132;47.946;10.394;2024-01-15T14:16:07;4.10;;;2.80;;
18013;SDS011;9132;47.946;10.394;2024-01-15T14:18:34;5.90;;;3.20;;
18013;SDS011;9132;47.946;10.394;2024-01-15T14:21:03;4.93;;;3.57;;
18013;SDS011;9132;47.946;10.394;2024-01-15T14:23:31;5.50;;;3.50;;
18013;SDS011;9132;47.946;10.394;2024-01-15T14:25:57;4.07;;;3.10;;
18013;SDS011;9132;47.946;10.394;2024-01-15T14:28:24;4.57;;;3.40;;
18013;SDS011;9132;47.946;10.394;2024-01-15T14:30:50;5.00;;;3.00;;
18013;SDS011;9132;47.946;10.394;2024-01-15T14:33:18;6.17;;;3.47;;
18013;SDS011;9132;47.946;10.394;2024-01-15T14:35:45;6.27;;;4.47;;
18013;SDS011;9132;47.946;10.394;2024-01-15T14:38:13;4.10;;;2.80;;
18013;SDS011;9132;47.946;10.394;2024-01-15T14:40:40;4.80;;;3.30;;
18013;SDS011;9132;47.946;10.394;2024-01-15T14:43:06;4.37;;;2.90;;
18013;SDS011;9132;47.946;10.394;2024-01-15T14:45:35;5.10;;;3.13;;
18013;SDS011;9132;47.946;10.394;2024-01-15T14:48:01;5.73;;;3.77;;
18013;SDS011;9132;47.946;10.394;2024-01-15T14:50:28;4.80;;;3.20;;